sensor_id;sensor_type;location;lat;lon;timestamp;temperature;humidity
3876;DHT22;1953;51.222;6.624;2024-02-14T00:02:33;10.30;1.00
3876;DHT22;1953;51.222;6.624;2024-02-14T00:07:16;10.30;1.00
3876;DHT22;1953;51.222;6.624;2024-02-14T00:11:59;10.20;1.00
3876;DHT22;1953;51.222;6.624;2024-02-14T00:21:14;10.10;1.00
3876;DHT22;1953;51.222;6.624;2024-02-14T00:25:56;10.10;1.00
3876;DHT22;1953;51.222;6.624;2024-02-14T00:30:39;10.10;1.00
3876;DHT22;1953;51.222;6.624;2024-02-14T00:35:22;10.10;1.00
3876;DHT22;1953;51.222;6.624;2024-02-14T00:40:07;10.10;1.00
3876;DHT22;1953;51.222;6.624;2024-02-14T00:44:50;10.20;1.00
3876;DHT22;1953;51.222;6.624;2024-02-14T00:49:34;10.20;1.00
3876;DHT22;1953;51.222;6.624;2024-02-14T00:54:17;10.20;1.00
3876;DHT22;1953;51.222;6.624;2024-02-14T00:59:01;10.20;1.00
3876;DHT22;1953;51.222;6.624;2024-02-14T01:03:43;10.30;1.00
3876;DHT22;1953;51.222;6.624;2024-02-14T01:08:26;10.30;1.00
3876;DHT22;1953;51.222;6.624;2024-02-14T01:13:10;10.40;1.00
3876;DHT22;1953;51.222;6.624;2024-02-14T01:17:54;10.40;1.00
3876;DHT22;1953;51.222;6.624;2024-02-14T01:22:37;10.40;1.00
3876;DHT22;1953;51.222;6.624;2024-02-14T01:27:19;10.50;1.00
3876;DHT22;1953;51.222;6.624;2024-02-14T01:32:04;10.60;1.00
3876;DHT22;1953;51.222;6.624;2024-02-14T01:36:49;10.60;1.00
3876;DHT22;1953;51.222;6.624;2024-02-14T01:41:32;10.60;1.00
3876;DHT22;1953;51.222;6.624;2024-02-14T01:46:14;10.60;1.00
3876;DHT22;1953;51.222;6.624;2024-02-14T01:50:57;10.60;1.00
3876;DHT22;1953;51.222;6.624;2024-02-14T01:55:42;10.70;1.00
3876;DHT22;1953;51.222;6.624;2024-02-14T02:00:26;10.70;1.00
3876;DHT22;1953;51.222;6.624;2024-02-14T02:05:09;10.70;1.00
3876;DHT22;1953;51.222;6.624;2024-02-14T02:09:52;10.70;1.00
3876;DHT22;1953;51.222;6.624;2024-02-14T02:14:36;10.80;1.00
3876;DHT22;1953;51.222;6.624;2024-02-14T02:19:18;10.90;1.00
3876;DHT22;1953;51.222;6.624;2024-02-14T02:24:02;10.90;1.00
3876;DHT22;1953;51.222;6.624;2024-02-14T02:28:45;10.90;1.00
3876;DHT22;1953;51.222;6.624;2024-02-14T02:33:28;11.00;1.00
3876;DHT22;1953;51.222;6.624;2024-02-14T02:38:10;10.90;1.00
3876;DHT22;1953;51.222;6.624;2024-02-14T02:42:54;11.00;1.00
3876;DHT22;1953;51.222;6.624;2024-02-14T02:47:37;11.00;1.00
3876;DHT22;1953;51.222;6.624;2024-02-14T02:52:20;11.10;1.00
3876;DHT22;1953;51.222;6.624;2024-02-14T02:57:03;11.10;1.00
3876;DHT22;1953;51.222;6.624;2024-02-14T03:01:47;11.10;1.00
3876;DHT22;1953;51.222;6.624;2024-02-14T03:06:31;11.10;1.00
3876;DHT22;1953;51.222;6.624;2024-02-14T03:11:15;11.10;1.00
3876;DHT22;1953;51.222;6.624;2024-02-14T03:15:57;11.00;1.00
3876;DHT22;1953;51.222;6.624;2024-02-14T03:20:41;11.00;1.00
3876;DHT22;1953;51.222;6.624;2024-02-14T03:25:24;11.00;1.00
3876;DHT22;1953;51.222;6.624;2024-02-14T03:30:08;11.00;1.00
3876;DHT22;1953;51.222;6.624;2024-02-14T03:34:50;11.00;1.00
3876;DHT22;1953;51.222;6.624;2024-02-14T03:39:34;11.00;1.00
3876;DHT22;1953;51.222;6.624;2024-02-14T03:44:17;10.90;1.00
3876;DHT22;1953;51.222;6.624;2024-02-14T03:48:59;10.90;1.00
3876;DHT22;1953;51.222;6.624;2024-02-14T03:53:42;11.00;1.00
3876;DHT22;1953;51.222;6.624;2024-02-14T03:58:26;10.90;1.00
3876;DHT22;1953;51.222;6.624;2024-02-14T04:03:11;10.90;1.00
3876;DHT22;1953;51.222;6.624;2024-02-14T04:07:53;10.90;1.00
3876;DHT22;1953;51.222;6.624;2024-02-14T04:12:36;11.00;1.00
3876;DHT22;1953;51.222;6.624;2024-02-14T04:17:20;10.90;1.00
3876;DHT22;1953;51.222;6.624;2024-02-14T04:22:03;11.00;1.00
3876;DHT22;1953;51.222;6.624;2024-02-14T04:26:47;11.00;1.00
3876;DHT22;1953;51.222;6.624;2024-02-14T04:31:30;11.00;1.00
3876;DHT22;1953;51.222;6.624;2024-02-14T04:36:15;11.00;1.00
3876;DHT22;1953;51.222;6.624;2024-02-14T04:40:57;11.00;1.00
3876;DHT22;1953;51.222;6.624;2024-02-14T04:45:40;11.00;1.00
3876;DHT22;1953;51.222;6.624;2024-02-14T04:50:22;11.00;1.00
3876;DHT22;1953;51.222;6.624;2024-02-14T04:55:07;11.10;1.00
3876;DHT22;1953;51.222;6.624;2024-02-14T04:59:50;11.10;1.00
3876;DHT22;1953;51.222;6.624;2024-02-14T05:04:33;11.10;1.00
3876;DHT22;1953;51.222;6.624;2024-02-14T05:09:19;11.10;1.00
3876;DHT22;1953;51.222;6.624;2024-02-14T05:14:02;11.10;1.00
3876;DHT22;1953;51.222;6.624;2024-02-14T05:18:45;11.00;1.00
3876;DHT22;1953;51.222;6.624;2024-02-14T05:23:27;10.90;1.00
3876;DHT22;1953;51.222;6.624;2024-02-14T05:28:10;10.90;1.00
3876;DHT22;1953;51.222;6.624;2024-02-14T05:32:56;10.90;1.00
3876;DHT22;1953;51.222;6.624;2024-02-14T05:37:38;10.90;1.00
3876;DHT22;1953;51.222;6.624;2024-02-14T05:42:21;10.90;1.00
3876;DHT22;1953;51.222;6.624;2024-02-14T05:47:04;10.90;1.00
3876;DHT22;1953;51.222;6.624;2024-02-14T05:51:48;10.80;1.00
3876;DHT22;1953;51.222;6.624;2024-02-14T05:56:31;10.90;1.00
3876;DHT22;1953;51.222;6.624;2024-02-14T06:01:13;10.90;1.00
3876;DHT22;1953;51.222;6.624;2024-02-14T06:05:56;10.90;1.00
3876;DHT22;1953;51.222;6.624;2024-02-14T06:10:39;10.90;1.00
3876;DHT22;1953;51.222;6.624;2024-02-14T06:15:22;10.90;1.00
3876;DHT22;1953;51.222;6.624;2024-02-14T06:20:06;11.00;1.00
3876;DHT22;1953;51.222;6.624;2024-02-14T06:24:48;11.00;1.00
3876;DHT22;1953;51.222;6.624;2024-02-14T06:29:32;11.00;1.00
3876;DHT22;1953;51.222;6.624;2024-02-14T06:34:15;10.90;1.00
3876;DHT22;1953;51.222;6.624;2024-02-14T06:38:57;10.90;1.00
3876;DHT22;1953;51.222;6.624;2024-02-14T06:43:40;11.00;1.00
3876;DHT22;1953;51.222;6.624;2024-02-14T06:48:24;11.00;1.00
3876;DHT22;1953;51.222;6.624;2024-02-14T06:53:06;11.00;1.00
3876;DHT22;1953;51.222;6.624;2024-02-14T06:57:49;11.00;1.00
3876;DHT22;1953;51.222;6.624;2024-02-14T07:02:31;11.10;1.00
3876;DHT22;1953;51.222;6.624;2024-02-14T07:07:15;11.10;1.00
3876;DHT22;1953;51.222;6.624;2024-02-14T07:11:58;11.10;1.00
3876;DHT22;1953;51.222;6.624;2024-02-14T07:16:40;11.20;1.00
3876;DHT22;1953;51.222;6.624;2024-02-14T07:21:23;11.20;1.00
3876;DHT22;1953;51.222;6.624;2024-02-14T07:26:07;11.20;1.00
3876;DHT22;1953;51.222;6.624;2024-02-14T07:30:49;11.20;1.00
3876;DHT22;1953;51.222;6.624;2024-02-14T07:35:32;11.30;1.00
3876;DHT22;1953;51.222;6.624;2024-02-14T07:40:14;11.40;1.00
3876;DHT22;1953;51.222;6.624;2024-02-14T07:44:58;11.40;1.00
3876;DHT22;1953;51.222;6.624;2024-02-14T07:49:41;11.40;1.00
3876;DHT22;1953;51.222;6.624;2024-02-14T07:54:23;11.50;1.00
3876;DHT22;1953;51.222;6.624;2024-02-14T07:59:06;11.60;1.00
3876;DHT22;1953;51.222;6.624;2024-02-14T08:03:50;11.70;1.00
3876;DHT22;1953;51.222;6.624;2024-02-14T08:08:32;11.70;1.00
3876;DHT22;1953;51.222;6.624;2024-02-14T08:13:15;11.70;1.00
3876;DHT22;1953;51.222;6.624;2024-02-14T08:17:58;11.80;1.00
3876;DHT22;1953;51.222;6.624;2024-02-14T08:22:42;11.70;1.00
3876;DHT22;1953;51.222;6.624;2024-02-14T08:27:25;11.90;1.00
3876;DHT22;1953;51.222;6.624;2024-02-14T08:32:08;11.90;1.00
3876;DHT22;1953;51.222;6.624;2024-02-14T08:36:51;12.10;1.00
3876;DHT22;1953;51.222;6.624;2024-02-14T08:41:35;12.10;1.00
3876;DHT22;1953;51.222;6.624;2024-02-14T08:46:17;12.20;1.00
3876;DHT22;1953;51.222;6.624;2024-02-14T08:51:00;12.30;1.00
3876;DHT22;1953;51.222;6.624;2024-02-14T08:55:43;12.30;1.00
3876;DHT22;1953;51.222;6.624;2024-02-14T09:00:26;12.40;1.00
3876;DHT22;1953;51.222;6.624;2024-02-14T09:05:09;12.50;1.00
3876;DHT22;1953;51.222;6.624;2024-02-14T09:09:51;12.60;1.00
3876;DHT22;1953;51.222;6.624;2024-02-14T09:14:34;12.70;1.00
3876;DHT22;1953;51.222;6.624;2024-02-14T09:19:18;12.80;1.00
3876;DHT22;1953;51.222;6.624;2024-02-14T09:24:01;12.90;1.00
3876;DHT22;1953;51.222;6.624;2024-02-14T09:28:44;13.00;1.00
3876;DHT22;1953;51.222;6.624;2024-02-14T09:33:26;13.10;1.00
3876;DHT22;1953;51.222;6.624;2024-02-14T09:38:10;13.20;1.00
3876;DHT22;1953;51.222;6.624;2024-02-14T09:42:54;13.30;1.00
3876;DHT22;1953;51.222;6.624;2024-02-14T09:47:40;13.30;1.00
3876;DHT22;1953;51.222;6.624;2024-02-14T09:52:23;13.40;1.00
3876;DHT22;1953;51.222;6.624;2024-02-14T09:57:07;13.40;1.00
3876;DHT22;1953;51.222;6.624;2024-02-14T10:01:50;13.30;1.00
3876;DHT22;1953;51.222;6.624;2024-02-14T10:06:33;13.40;1.00
3876;DHT22;1953;51.222;6.624;2024-02-14T10:11:16;13.40;1.00
3876;DHT22;1953;51.222;6.624;2024-02-14T10:16:00;13.50;1.00
3876;DHT22;1953;51.222;6.624;2024-02-14T10:20:53;13.60;1.00
3876;DHT22;1953;51.222;6.624;2024-02-14T10:25:36;13.60;1.00
3876;DHT22;1953;51.222;6.624;2024-02-14T10:30:19;13.70;1.00
3876;DHT22;1953;51.222;6.624;2024-02-14T10:35:06;13.70;1.00
3876;DHT22;1953;51.222;6.624;2024-02-14T10:39:51;13.70;1.00
3876;DHT22;1953;51.222;6.624;2024-02-14T10:44:35;13.70;1.00
3876;DHT22;1953;51.222;6.624;2024-02-14T10:49:20;13.80;1.00
3876;DHT22;1953;51.222;6.624;2024-02-14T10:54:10;13.80;1.00
3876;DHT22;1953;51.222;6.624;2024-02-14T10:58:56;13.90;1.00
3876;DHT22;1953;51.222;6.624;2024-02-14T11:03:40;13.90;1.00
3876;DHT22;1953;51.222;6.624;2024-02-14T11:08:23;13.90;1.00
3876;DHT22;1953;51.222;6.624;2024-02-14T11:13:12;14.10;1.00
3876;DHT22;1953;51.222;6.624;2024-02-14T11:18:04;14.30;1.00
3876;DHT22;1953;51.222;6.624;2024-02-14T11:22:54;14.50;1.00
3876;DHT22;1953;51.222;6.624;2024-02-14T11:27:44;14.60;1.00
3876;DHT22;1953;51.222;6.624;2024-02-14T11:32:28;14.80;1.00
3876;DHT22;1953;51.222;6.624;2024-02-14T11:37:12;14.80;1.00
3876;DHT22;1953;51.222;6.624;2024-02-14T11:41:57;14.90;1.00
3876;DHT22;1953;51.222;6.624;2024-02-14T11:46:40;14.80;1.00
3876;DHT22;1953;51.222;6.624;2024-02-14T11:51:24;14.70;1.00
3876;DHT22;1953;51.222;6.624;2024-02-14T11:56:07;14.50;1.00
3876;DHT22;1953;51.222;6.624;2024-02-14T12:00:49;14.50;1.00
3876;DHT22;1953;51.222;6.624;2024-02-14T12:05:32;14.40;1.00
3876;DHT22;1953;51.222;6.624;2024-02-14T12:10:16;14.30;1.00
3876;DHT22;1953;51.222;6.624;2024-02-14T12:15:01;14.20;1.00
3876;DHT22;1953;51.222;6.624;2024-02-14T12:22:16;14.10;1.00
3876;DHT22;1953;51.222;6.624;2024-02-14T12:27:00;14.00;1.00
3876;DHT22;1953;51.222;6.624;2024-02-14T12:31:43;13.90;1.00
3876;DHT22;1953;51.222;6.624;2024-02-14T12:36:26;13.90;1.00
3876;DHT22;1953;51.222;6.624;2024-02-14T12:41:10;13.90;1.00
3876;DHT22;1953;51.222;6.624;2024-02-14T12:45:52;14.00;1.00
3876;DHT22;1953;51.222;6.624;2024-02-14T12:50:35;14.10;1.00
3876;DHT22;1953;51.222;6.624;2024-02-14T12:55:18;14.10;1.00
3876;DHT22;1953;51.222;6.624;2024-02-14T13:00:03;14.20;1.00
3876;DHT22;1953;51.222;6.624;2024-02-14T13:04:47;14.40;1.00
3876;DHT22;1953;51.222;6.624;2024-02-14T13:09:30;14.40;1.00
3876;DHT22;1953;51.222;6.624;2024-02-14T13:14:12;14.50;1.00
3876;DHT22;1953;51.222;6.624;2024-02-14T13:18:57;14.50;1.00
3876;DHT22;1953;51.222;6.624;2024-02-14T13:23:39;14.40;1.00
3876;DHT22;1953;51.222;6.624;2024-02-14T13:28:22;14.40;1.00
3876;DHT22;1953;51.222;6.624;2024-02-14T13:33:05;14.40;1.00
3876;DHT22;1953;51.222;6.624;2024-02-14T13:37:50;14.30;1.00
3876;DHT22;1953;51.222;6.624;2024-02-14T13:42:32;14.30;1.00
3876;DHT22;1953;51.222;6.624;2024-02-14T13:47:18;14.30;1.00
3876;DHT22;1953;51.222;6.624;2024-02-14T13:52:00;14.30;1.00
3876;DHT22;1953;51.222;6.624;2024-02-14T13:56:45;14.20;1.00
3876;DHT22;1953;51.222;6.624;2024-02-14T14:01:29;14.20;1.00
3876;DHT22;1953;51.222;6.624;2024-02-14T14:06:12;14.10;1.00
3876;DHT22;1953;51.222;6.624;2024-02-14T14:10:55;14.00;1.00
3876;DHT22;1953;51.222;6.624;2024-02-14T14:15:38;13.90;1.00
3876;DHT22;1953;51.222;6.624;2024-02-14T14:20:22;13.90;1.00
3876;DHT22;1953;51.222;6.624;2024-02-14T14:25:05;13.70;1.00
3876;DHT22;1953;51.222;6.624;2024-02-14T14:29:49;13.70;1.00
3876;DHT22;1953;51.222;6.624;2024-02-14T14:34:33;13.60;1.00
3876;DHT22;1953;51.222;6.624;2024-02-14T14:39:16;13.50;1.00
3876;DHT22;1953;51.222;6.624;2024-02-14T14:43:58;13.40;1.00
3876;DHT22;1953;51.222;6.624;2024-02-14T14:48:41;13.40;1.00
3876;DHT22;1953;51.222;6.624;2024-02-14T14:53:25;13.30;1.00
3876;DHT22;1953;51.222;6.624;2024-02-14T14:58:13;13.30;1.00
3876;DHT22;1953;51.222;6.624;2024-02-14T15:02:56;13.30;1.00
3876;DHT22;1953;51.222;6.624;2024-02-14T15:07:38;13.30;1.00
3876;DHT22;1953;51.222;6.624;2024-02-14T15:12:32;13.30;1.00
3876;DHT22;1953;51.222;6.624;2024-02-14T15:17:16;13.40;1.00
3876;DHT22;1953;51.222;6.624;2024-02-14T15:21:58;13.30;1.00
3876;DHT22;1953;51.222;6.624;2024-02-14T15:26:44;13.30;1.00
3876;DHT22;1953;51.222;6.624;2024-02-14T15:31:32;13.30;1.00
3876;DHT22;1953;51.222;6.624;2024-02-14T15:36:33;13.40;1.00
3876;DHT22;1953;51.222;6.624;2024-02-14T15:41:15;13.40;1.00
3876;DHT22;1953;51.222;6.624;2024-02-14T15:45:59;13.40;1.00
3876;DHT22;1953;51.222;6.624;2024-02-14T15:50:43;13.40;1.00
3876;DHT22;1953;51.222;6.624;2024-02-14T15:55:26;13.40;1.00
3876;DHT22;1953;51.222;6.624;2024-02-14T16:00:11;13.40;1.00
3876;DHT22;1953;51.222;6.624;2024-02-14T16:04:54;13.50;1.00
3876;DHT22;1953;51.222;6.624;2024-02-14T16:09:38;13.40;1.00
3876;DHT22;1953;51.222;6.624;2024-02-14T16:14:20;13.40;1.00
3876;DHT22;1953;51.222;6.624;2024-02-14T16:19:03;13.40;1.00
3876;DHT22;1953;51.222;6.624;2024-02-14T16:23:46;13.40;1.00
3876;DHT22;1953;51.222;6.624;2024-02-14T16:28:30;13.30;1.00
3876;DHT22;1953;51.222;6.624;2024-02-14T16:33:12;13.30;1.00
3876;DHT22;1953;51.222;6.624;2024-02-14T16:37:55;13.30;1.00
3876;DHT22;1953;51.222;6.624;2024-02-14T16:42:38;13.30;1.00
3876;DHT22;1953;51.222;6.624;2024-02-14T16:47:22;13.30;1.00
3876;DHT22;1953;51.222;6.624;2024-02-14T16:52:05;13.30;1.00
3876;DHT22;1953;51.222;6.624;2024-02-14T16:56:47;13.30;1.00
3876;DHT22;1953;51.222;6.624;2024-02-14T17:01:30;13.40;1.00
3876;DHT22;1953;51.222;6.624;2024-02-14T17:06:16;13.40;1.00
3876;DHT22;1953;51.222;6.624;2024-02-14T17:10:59;13.40;1.00
3876;DHT22;1953;51.222;6.624;2024-02-14T17:15:42;13.40;1.00
3876;DHT22;1953;51.222;6.624;2024-02-14T17:20:25;13.50;1.00
3876;DHT22;1953;51.222;6.624;2024-02-14T17:25:09;13.50;1.00
3876;DHT22;1953;51.222;6.624;2024-02-14T17:29:51;13.50;1.00
3876;DHT22;1953;51.222;6.624;2024-02-14T17:34:34;13.50;1.00
3876;DHT22;1953;51.222;6.624;2024-02-14T17:39:16;13.50;1.00
3876;DHT22;1953;51.222;6.624;2024-02-14T17:44:01;13.50;1.00
3876;DHT22;1953;51.222;6.624;2024-02-14T17:48:44;13.50;1.00
3876;DHT22;1953;51.222;6.624;2024-02-14T17:53:27;13.50;1.00
3876;DHT22;1953;51.222;6.624;2024-02-14T17:58:10;13.60;1.00
3876;DHT22;1953;51.222;6.624;2024-02-14T18:02:54;13.60;1.00
3876;DHT22;1953;51.222;6.624;2024-02-14T18:07:36;13.60;1.00
3876;DHT22;1953;51.222;6.624;2024-02-14T18:12:19;13.60;1.00
3876;DHT22;1953;51.222;6.624;2024-02-14T18:17:02;13.60;1.00
3876;DHT22;1953;51.222;6.624;2024-02-14T18:21:46;13.60;1.00
3876;DHT22;1953;51.222;6.624;2024-02-14T18:26:29;13.60;1.00
3876;DHT22;1953;51.222;6.624;2024-02-14T18:31:11;13.60;1.00
3876;DHT22;1953;51.222;6.624;2024-02-14T18:35:54;13.50;1.00
3876;DHT22;1953;51.222;6.624;2024-02-14T18:40:38;13.50;1.00
3876;DHT22;1953;51.222;6.624;2024-02-14T18:45:22;13.60;1.00
3876;DHT22;1953;51.222;6.624;2024-02-14T18:50:05;13.60;1.00
3876;DHT22;1953;51.222;6.624;2024-02-14T18:54:48;13.60;1.00
3876;DHT22;1953;51.222;6.624;2024-02-14T18:59:32;13.70;1.00
3876;DHT22;1953;51.222;6.624;2024-02-14T19:04:15;13.70;1.00
3876;DHT22;1953;51.222;6.624;2024-02-14T19:08:58;13.80;1.00
3876;DHT22;1953;51.222;6.624;2024-02-14T19:13:40;13.80;1.00
3876;DHT22;1953;51.222;6.624;2024-02-14T19:18:24;13.70;1.00
3876;DHT22;1953;51.222;6.624;2024-02-14T19:23:06;13.70;1.00
3876;DHT22;1953;51.222;6.624;2024-02-14T19:27:49;13.70;1.00
3876;DHT22;1953;51.222;6.624;2024-02-14T19:32:32;13.70;1.00
3876;DHT22;1953;51.222;6.624;2024-02-14T19:37:18;13.70;1.00
3876;DHT22;1953;51.222;6.624;2024-02-14T19:42:00;13.70;1.00
3876;DHT22;1953;51.222;6.624;2024-02-14T19:46:43;13.70;1.00
3876;DHT22;1953;51.222;6.624;2024-02-14T19:51:27;13.60;1.00
3876;DHT22;1953;51.222;6.624;2024-02-14T19:56:12;13.60;1.00
3876;DHT22;1953;51.222;6.624;2024-02-14T20:00:55;13.60;1.00
3876;DHT22;1953;51.222;6.624;2024-02-14T20:05:37;13.60;1.00
3876;DHT22;1953;51.222;6.624;2024-02-14T20:10:20;13.60;1.00
3876;DHT22;1953;51.222;6.624;2024-02-14T20:15:05;13.60;1.00
3876;DHT22;1953;51.222;6.624;2024-02-14T20:19:49;13.60;1.00
3876;DHT22;1953;51.222;6.624;2024-02-14T20:24:32;13.60;1.00
3876;DHT22;1953;51.222;6.624;2024-02-14T20:29:15;13.50;1.00
3876;DHT22;1953;51.222;6.624;2024-02-14T20:33:59;13.50;1.00
3876;DHT22;1953;51.222;6.624;2024-02-14T20:38:45;13.40;1.00
3876;DHT22;1953;51.222;6.624;2024-02-14T20:43:27;13.40;1.00
3876;DHT22;1953;51.222;6.624;2024-02-14T20:48:10;13.40;1.00
3876;DHT22;1953;51.222;6.624;2024-02-14T20:52:54;13.40;1.00
3876;DHT22;1953;51.222;6.624;2024-02-14T20:57:36;13.40;1.00
3876;DHT22;1953;51.222;6.624;2024-02-14T21:02:19;13.50;1.00
3876;DHT22;1953;51.222;6.624;2024-02-14T21:07:01;13.50;1.00
3876;DHT22;1953;51.222;6.624;2024-02-14T21:11:45;13.50;1.00
3876;DHT22;1953;51.222;6.624;2024-02-14T21:16:28;13.50;1.00
3876;DHT22;1953;51.222;6.624;2024-02-14T21:21:11;13.60;1.00
3876;DHT22;1953;51.222;6.624;2024-02-14T21:25:53;13.60;1.00
3876;DHT22;1953;51.222;6.624;2024-02-14T21:30:37;13.60;1.00
3876;DHT22;1953;51.222;6.624;2024-02-14T21:35:20;13.60;1.00
3876;DHT22;1953;51.222;6.624;2024-02-14T21:40:04;13.60;1.00
3876;DHT22;1953;51.222;6.624;2024-02-14T21:44:46;13.70;1.00
3876;DHT22;1953;51.222;6.624;2024-02-14T21:49:31;13.70;1.00
3876;DHT22;1953;51.222;6.624;2024-02-14T21:54:14;13.70;1.00
3876;DHT22;1953;51.222;6.624;2024-02-14T21:58:56;13.70;1.00
3876;DHT22;1953;51.222;6.624;2024-02-14T22:03:39;13.80;1.00
3876;DHT22;1953;51.222;6.624;2024-02-14T22:08:24;13.80;1.00
3876;DHT22;1953;51.222;6.624;2024-02-14T22:13:09;13.80;1.00
3876;DHT22;1953;51.222;6.624;2024-02-14T22:17:51;13.80;1.00
3876;DHT22;1953;51.222;6.624;2024-02-14T22:22:35;13.80;1.00
3876;DHT22;1953;51.222;6.624;2024-02-14T22:27:19;13.80;1.00
3876;DHT22;1953;51.222;6.624;2024-02-14T22:32:06;13.90;1.00
3876;DHT22;1953;51.222;6.624;2024-02-14T22:36:49;13.90;1.00
3876;DHT22;1953;51.222;6.624;2024-02-14T22:41:33;13.90;1.00
3876;DHT22;1953;51.222;6.624;2024-02-14T22:46:17;13.90;1.00
3876;DHT22;1953;51.222;6.624;2024-02-14T22:51:00;13.90;1.00
3876;DHT22;1953;51.222;6.624;2024-02-14T22:55:43;13.90;1.00
3876;DHT22;1953;51.222;6.624;2024-02-14T23:00:25;13.80;1.00
3876;DHT22;1953;51.222;6.624;2024-02-14T23:05:09;13.90;1.00
3876;DHT22;1953;51.222;6.624;2024-02-14T23:09:55;13.90;1.00
3876;DHT22;1953;51.222;6.624;2024-02-14T23:14:38;13.80;1.00
3876;DHT22;1953;51.222;6.624;2024-02-14T23:19:21;13.90;1.00
3876;DHT22;1953;51.222;6.624;2024-02-14T23:24:07;13.90;1.00
3876;DHT22;1953;51.222;6.624;2024-02-14T23:28:49;13.90;1.00
3876;DHT22;1953;51.222;6.624;2024-02-14T23:33:32;13.90;1.00
3876;DHT22;1953;51.222;6.624;2024-02-14T23:38:14;13.90;1.00
3876;DHT22;1953;51.222;6.624;2024-02-14T23:42:58;14.00;1.00
3876;DHT22;1953;51.222;6.624;2024-02-14T23:47:41;13.90;1.00
3876;DHT22;1953;51.222;6.624;2024-02-14T23:52:24;13.90;1.00
3876;DHT22;1953;51.222;6.624;2024-02-14T23:57:07;13.90;1.00
